MDT,Max TemperatureF,Mean TemperatureF,Min TemperatureF,Max Dew PointF,MeanDew PointF,Min DewpointF,Max Humidity, Mean Humidity, Min Humidity, Max Sea Level PressureIn, Mean Sea Level PressureIn, Min Sea Level PressureIn, Max VisibilityMiles, Mean VisibilityMiles, Min VisibilityMiles, Max Wind SpeedMPH, Mean Wind SpeedMPH, Max Gust SpeedMPH,PrecipitationIn, CloudCover, Events, WindDirDegrees
2012-5-1,59,50,41,21,16,10,33,26,21,30.12,30.05,30.01,10,10,10,17,7,28,0.00,3,,179
2012-5-2,60,50,41,25,20,14,53,30,19,30.16,30.08,30.02,10,10,10,14,4,24,0.00,1,,215
2012-5-3,62,52,41,25,18,10,49,27,13,30.20,30.17,30.14,10,10,10,18,6,29,0.00,1,,155
2012-5-4,66,56,46,21,9,-2,37,18,6,30.24,30.21,30.19,10,10,10,15,4,24,0.00,0,,141
2012-5-5,62,52,42,19,9,-2,36,19,8,30.22,30.19,30.17,10,10,10,16,4,31,0.00,0,,238
2012-5-6,59,48,37,19,11,-2,48,25,9,30.20,30.18,30.15,10,10,10,16,6,29,0.00,2,,176
2012-5-7,51,44,37,34,23,12,81,47,24,30.22,30.15,30.10,10,10,10,16,5,28,0.00,5,Rain-Thunderstorm,122
2012-5-8,55,44,32,32,25,14,75,53,24,30.31,30.26,30.21,10,10,10,9,2,18,0.00,2,Thunderstorm,126
2012-5-9,60,48,35,30,25,14,75,45,20,30.33,30.26,30.19,10,10,10,13,4,23,0.00,2,Rain,130
2012-5-10,64,50,37,27,21,7,65,35,11,30.22,30.13,30.05,10,10,10,10,4,20,0.00,2,Rain,115
2012-5-11,60,50,41,34,25,18,61,41,20,30.31,30.17,30.10,10,10,10,16,6,28,0.00,4,Rain-Thunderstorm,140
2012-5-12,60,48,37,32,16,-8,70,33,8,30.38,30.34,30.28,10,10,10,16,5,28,0.00,2,Thunderstorm,220
2012-5-13,53,45,35,28,20,10,70,38,21,30.39,30.37,30.33,10,10,10,9,4,20,0.00,3,Rain-Thunderstorm,121
2012-5-14,64,48,32,27,17,7,75,36,11,30.42,30.38,30.33,10,10,10,9,4,21,0.00,0,,171
2012-5-15,68,54,41,27,18,3,45,28,8,30.43,30.39,30.34,10,10,10,12,5,20,0.00,1,Thunderstorm,128
2012-5-16,62,53,44,34,20,7,62,29,11,30.37,30.31,30.22,10,10,10,26,7,36,0.00,2,Rain,125
2012-5-17,64,54,44,30,20,9,53,29,12,30.24,30.17,30.07,10,10,10,15,4,32,0.00,3,,204
2012-5-18,60,51,42,32,15,5,66,24,11,30.07,30.01,29.92,10,10,7,24,8,44,0.00,4,Rain,161
2012-5-19,59,47,35,32,24,18,75,45,20,30.30,30.16,30.03,10,10,10,15,5,23,0.00,1,,237
2012-5-20,66,52,37,23,16,5,56,29,10,30.44,30.36,30.31,10,10,10,16,5,24,0.00,0,,159
2012-5-21,71,56,42,21,17,10,42,23,11,30.47,30.41,30.33,10,10,10,13,6,21,0.00,1,,157
2012-5-22,71,58,46,21,14,5,32,18,8,30.34,30.21,30.06,10,10,10,21,8,31,0.24,0,,188
2012-5-23,66,55,44,21,17,10,37,20,14,30.05,29.90,29.75,10,10,10,31,11,48,0.00,2,,225
2012-5-24,59,47,35,27,15,-6,65,31,8,29.95,29.91,29.87,10,10,10,18,5,26,0.00,3,,233
2012-5-25,68,60,51,32,24,18,47,28,15,29.99,29.92,29.87,10,10,10,31,12,50,0.00,4,,146
2012-5-26,62,52,39,27,16,-2,35,22,15,30.07,29.95,29.85,10,8,4,41,17,72,0.00,3,,158
2012-5-27,50,41,32,12,6,-4,38,24,13,30.22,30.11,30.04,10,10,10,22,5,32,0.00,1,,225
2012-5-28,60,46,32,18,14,12,48,30,16,30.31,30.24,30.20,10,10,10,18,4,25,0.00,0,,232
2012-5-29,68,52,37,19,12,1,45,23,9,30.32,30.29,30.24,10,10,10,17,6,26,0.00,0,,175
2012-5-30,69,55,41,21,14,9,32,22,11,30.31,30.28,30.24,10,10,10,20,5,29,0.00,1,,85
2012-5-31,71,56,42,30,24,19,49,29,16,30.32,30.29,30.25,10,10,10,10,4,22,0.00,0,,129